createdAt,value
2017-07-28T00:00:21.690Z,85.00
2017-07-28T00:02:49.145Z,84.27
2017-07-28T00:05:16.628Z,82.86
2017-07-28T00:07:44.040Z,82.91
2017-07-28T00:10:11.484Z,83.16
2017-07-28T00:12:38.901Z,83.38
2017-07-28T00:15:06.333Z,83.93
2017-07-28T00:17:33.820Z,84.35
2017-07-28T00:20:01.267Z,84.15
2017-07-28T00:22:28.699Z,82.73
2017-07-28T00:24:56.141Z,83.42
2017-07-28T00:27:23.579Z,83.24
2017-07-28T00:29:50.988Z,82.45
2017-07-28T00:32:18.427Z,83.38
2017-07-28T00:34:45.845Z,82.87
2017-07-28T00:37:13.279Z,82.76
2017-07-28T00:39:40.698Z,82.53
2017-07-28T00:42:08.114Z,82.46
2017-07-28T00:44:35.625Z,82.37
2017-07-28T00:47:03.018Z,82.28
2017-07-28T00:49:30.459Z,82.23
2017-07-28T00:51:58.024Z,82.41
2017-07-28T00:54:25.471Z,82.86
2017-07-28T00:56:52.909Z,83.38
2017-07-28T00:59:20.314Z,83.50
2017-07-28T01:01:47.750Z,83.47
2017-07-28T01:04:15.181Z,83.03
2017-07-28T01:06:42.594Z,83.85
2017-07-28T01:09:10.062Z,83.57
2017-07-28T01:11:37.498Z,83.59
2017-07-28T01:14:05.599Z,83.32
2017-07-28T01:16:33.041Z,84.16
2017-07-28T01:19:00.525Z,83.89
2017-07-28T01:21:28.067Z,83.95
2017-07-28T01:23:55.638Z,83.52
2017-07-28T01:26:23.129Z,83.16
2017-07-28T01:28:50.568Z,83.95
2017-07-28T01:31:17.972Z,84.53
2017-07-28T01:33:45.472Z,84.55
2017-07-28T01:36:12.879Z,84.54
2017-07-28T01:38:40.380Z,84.15
2017-07-28T01:41:07.892Z,84.31
2017-07-28T01:43:35.313Z,84.63
2017-07-28T01:46:02.739Z,84.00
2017-07-28T01:48:30.228Z,84.52
2017-07-28T01:50:57.700Z,84.73
2017-07-28T01:53:25.228Z,84.22
2017-07-28T01:55:52.687Z,84.53
2017-07-28T01:58:20.137Z,84.65
2017-07-28T02:00:47.625Z,84.84
2017-07-28T02:03:15.027Z,84.46
2017-07-28T02:05:42.471Z,84.66
2017-07-28T02:08:09.908Z,84.70
2017-07-28T02:10:37.367Z,84.69
2017-07-28T02:13:04.775Z,84.28
2017-07-28T02:15:32.179Z,83.49
2017-07-28T02:17:59.609Z,83.84
2017-07-28T02:20:27.041Z,84.00
2017-07-28T02:22:54.552Z,84.26
2017-07-28T02:25:21.951Z,83.54
2017-07-28T02:27:49.355Z,83.09
2017-07-28T02:30:16.839Z,84.18
2017-07-28T02:32:44.291Z,84.39
2017-07-28T02:35:11.748Z,84.93
2017-07-28T02:37:39.183Z,84.82
2017-07-28T02:40:06.626Z,84.59
2017-07-28T02:42:34.023Z,84.45
2017-07-28T02:45:01.424Z,84.03
2017-07-28T02:47:28.868Z,84.30
2017-07-28T02:49:56.300Z,85.13
2017-07-28T02:52:23.723Z,84.88
2017-07-28T02:54:51.175Z,84.70
2017-07-28T02:57:18.599Z,84.74
2017-07-28T02:59:46.053Z,83.55
2017-07-28T03:02:13.456Z,84.63
2017-07-28T03:04:40.930Z,84.04
2017-07-28T03:07:08.363Z,84.62
2017-07-28T03:09:36.330Z,84.82
2017-07-28T03:12:03.837Z,84.20
2017-07-28T03:14:31.247Z,84.55
2017-07-28T03:16:58.713Z,85.45
2017-07-28T03:19:26.111Z,85.42
2017-07-28T03:21:53.515Z,84.59
2017-07-28T03:24:20.948Z,85.14
2017-07-28T03:26:48.348Z,85.26
2017-07-28T03:29:15.914Z,84.49
2017-07-28T03:31:43.330Z,84.68
2017-07-28T03:34:10.752Z,84.43
2017-07-28T03:36:38.251Z,84.58
2017-07-28T03:39:05.690Z,85.65
2017-07-28T03:41:33.164Z,85.66
2017-07-28T03:44:00.601Z,85.79
2017-07-28T03:46:28.100Z,85.28
2017-07-28T03:48:55.630Z,84.40
2017-07-28T03:51:23.053Z,84.27
2017-07-28T03:53:50.574Z,84.49
2017-07-28T03:56:17.976Z,84.28
2017-07-28T03:58:45.423Z,84.13
2017-07-28T04:01:12.838Z,84.07
2017-07-28T04:03:40.245Z,84.02
2017-07-28T04:06:07.837Z,83.18
2017-07-28T04:08:35.255Z,83.35
2017-07-28T04:11:02.697Z,83.33
2017-07-28T04:13:30.127Z,81.99
2017-07-28T04:15:57.539Z,82.48
2017-07-28T04:18:25.000Z,82.72
2017-07-28T04:20:52.470Z,82.42
2017-07-28T04:23:20.050Z,82.83
2017-07-28T04:25:47.575Z,82.81
2017-07-28T04:28:15.036Z,83.67
2017-07-28T04:30:42.450Z,84.48
2017-07-28T04:33:09.873Z,83.80
2017-07-28T04:35:37.312Z,82.97
2017-07-28T04:38:04.721Z,82.18
2017-07-28T04:40:32.168Z,82.80
2017-07-28T04:42:59.635Z,83.01
2017-07-28T04:45:27.092Z,82.20
2017-07-28T04:47:54.506Z,82.63
2017-07-28T04:50:21.936Z,82.66
2017-07-28T04:52:49.387Z,83.01
2017-07-28T04:55:16.803Z,83.01
2017-07-28T04:57:44.323Z,83.22
2017-07-28T05:00:11.876Z,83.06
2017-07-28T05:02:39.384Z,82.70
2017-07-28T05:05:06.792Z,82.86
2017-07-28T05:07:34.244Z,82.79
2017-07-28T05:10:01.684Z,82.59
2017-07-28T05:12:29.134Z,82.02
2017-07-28T05:14:56.564Z,81.37
2017-07-28T05:17:24.321Z,81.25
2017-07-28T05:19:51.751Z,80.63
2017-07-28T05:22:19.212Z,80.15
2017-07-28T05:24:46.671Z,80.16
2017-07-28T05:27:14.116Z,80.01
2017-07-28T05:29:41.531Z,79.80
2017-07-28T05:32:08.939Z,79.72
2017-07-28T05:34:36.371Z,80.09
2017-07-28T05:37:03.835Z,79.70
2017-07-28T05:39:31.335Z,78.11
2017-07-28T05:41:58.742Z,78.33
2017-07-28T05:44:26.176Z,77.76
2017-07-28T05:46:53.588Z,77.02
2017-07-28T05:49:21.003Z,78.37
2017-07-28T05:51:48.436Z,78.17
2017-07-28T05:54:15.893Z,77.72
2017-07-28T05:56:43.375Z,77.23
2017-07-28T05:59:10.792Z,75.97
2017-07-28T06:01:38.207Z,77.37
2017-07-28T06:04:05.660Z,75.97
2017-07-28T06:06:33.061Z,75.74
2017-07-28T06:09:00.508Z,74.65
2017-07-28T06:11:28.004Z,75.81
2017-07-28T06:13:55.504Z,74.29
2017-07-28T06:16:22.934Z,72.63
2017-07-28T06:18:50.340Z,73.45
2017-07-28T06:21:17.777Z,70.82
2017-07-28T06:23:45.180Z,68.70
2017-07-28T06:26:12.639Z,69.84
2017-07-28T06:28:40.921Z,70.02
2017-07-28T06:31:08.367Z,68.22
2017-07-28T06:33:35.798Z,67.95
2017-07-28T06:36:03.207Z,67.67
2017-07-28T06:38:30.607Z,68.68
2017-07-28T06:40:58.054Z,67.59
2017-07-28T06:43:25.518Z,68.82
2017-07-28T06:45:52.982Z,67.38
2017-07-28T06:48:20.399Z,69.27
2017-07-28T06:50:47.813Z,69.58
2017-07-28T06:53:15.238Z,70.22
2017-07-28T06:55:42.665Z,68.02
2017-07-28T06:58:10.128Z,67.95
2017-07-28T07:00:37.610Z,68.04
2017-07-28T07:03:05.032Z,67.11
2017-07-28T07:05:32.479Z,66.95
2017-07-28T07:07:59.894Z,65.53
2017-07-28T07:10:27.309Z,66.19
2017-07-28T07:12:55.608Z,63.45
2017-07-28T07:15:23.029Z,64.85
2017-07-28T07:17:50.482Z,64.70
2017-07-28T07:20:17.916Z,65.02
2017-07-28T07:22:45.353Z,62.89
2017-07-28T07:25:12.763Z,62.66
2017-07-28T07:27:40.216Z,60.84
2017-07-28T07:30:07.625Z,60.70
2017-07-28T07:32:35.083Z,59.14
2017-07-28T07:35:02.514Z,58.48
2017-07-28T07:37:29.920Z,59.90
2017-07-28T07:39:57.363Z,57.29
2017-07-28T07:42:24.771Z,57.58
2017-07-28T07:44:52.206Z,60.40
2017-07-28T07:47:19.663Z,56.50
2017-07-28T07:49:47.085Z,57.54
2017-07-28T07:52:14.559Z,57.38
2017-07-28T07:54:41.986Z,58.51
2017-07-28T07:57:09.439Z,55.51
2017-07-28T07:59:37.107Z,54.76
2017-07-28T08:02:04.514Z,56.09
2017-07-28T08:04:31.970Z,55.70
2017-07-28T08:06:59.412Z,55.48
2017-07-28T08:09:26.923Z,57.02
2017-07-28T08:11:54.341Z,56.27
2017-07-28T08:14:22.405Z,55.31
2017-07-28T08:16:49.908Z,53.87
2017-07-28T08:19:17.333Z,53.35
2017-07-28T08:21:44.808Z,54.94
2017-07-28T08:24:12.392Z,54.64
2017-07-28T08:26:39.803Z,52.83
2017-07-28T08:29:07.235Z,51.62
2017-07-28T08:31:34.776Z,53.49
2017-07-28T08:34:02.230Z,53.70
2017-07-28T08:36:29.649Z,54.24
2017-07-28T08:38:57.087Z,51.81
2017-07-28T08:46:44.371Z,48.66
2017-07-28T08:49:11.879Z,46.86
2017-07-28T08:51:39.336Z,47.23
2017-07-28T08:54:06.774Z,47.00
2017-07-28T08:56:34.215Z,47.25
2017-07-28T08:59:01.700Z,48.30
2017-07-28T09:01:29.099Z,46.93
2017-07-28T09:03:56.984Z,47.40
2017-07-28T09:06:24.426Z,45.43
2017-07-28T09:08:51.877Z,44.26
2017-07-28T09:11:19.408Z,45.69
2017-07-28T09:13:46.836Z,45.96
2017-07-28T09:16:14.304Z,43.80
2017-07-28T09:18:41.747Z,44.30
2017-07-28T09:21:09.220Z,45.59
2017-07-28T09:23:36.670Z,45.62
2017-07-28T09:26:04.153Z,44.68
2017-07-28T09:28:31.609Z,43.98
2017-07-28T09:30:59.085Z,44.20
2017-07-28T09:33:26.499Z,43.75
2017-07-28T09:35:53.960Z,44.02
2017-07-28T09:38:21.426Z,44.08
2017-07-28T09:40:48.992Z,41.80
2017-07-28T09:43:16.434Z,40.94
2017-07-28T09:45:43.870Z,43.80
2017-07-28T09:48:11.851Z,43.62
2017-07-28T09:50:40.150Z,42.13
2017-07-28T09:53:07.610Z,43.64
2017-07-28T09:55:35.043Z,44.52
2017-07-28T09:58:02.582Z,45.08
2017-07-28T10:00:30.003Z,45.09
2017-07-28T10:02:57.481Z,45.72
2017-07-28T10:05:24.924Z,44.74
2017-07-28T10:07:52.504Z,42.46
2017-07-28T10:10:19.900Z,42.67
2017-07-28T10:12:47.312Z,45.87
2017-07-28T10:15:14.816Z,45.37
2017-07-28T10:17:42.226Z,44.61
2017-07-28T10:20:09.808Z,44.65
2017-07-28T10:22:37.299Z,42.75
2017-07-28T10:25:04.773Z,43.77
2017-07-28T10:27:32.236Z,43.77
2017-07-28T10:29:59.732Z,42.08
2017-07-28T10:32:27.217Z,42.21
2017-07-28T10:34:54.748Z,41.89
2017-07-28T10:37:22.152Z,41.76
2017-07-28T10:39:49.594Z,41.57
2017-07-28T10:42:17.083Z,42.04
2017-07-28T10:44:44.500Z,41.11
2017-07-28T10:47:11.948Z,39.54
2017-07-28T10:49:39.397Z,37.25
2017-07-28T10:52:06.898Z,39.49
2017-07-28T10:54:34.311Z,40.64
2017-07-28T10:57:01.841Z,39.55
2017-07-28T10:59:29.648Z,39.18
2017-07-28T11:01:57.108Z,39.11
2017-07-28T11:04:24.619Z,39.68
2017-07-28T11:06:52.066Z,40.33
2017-07-28T11:09:19.495Z,41.92
2017-07-28T11:11:46.947Z,41.04
2017-07-28T11:14:14.349Z,41.92
2017-07-28T11:16:41.837Z,40.48
2017-07-28T11:19:09.304Z,41.85
2017-07-28T11:21:36.860Z,41.15
2017-07-28T11:24:04.366Z,39.85
2017-07-28T11:26:31.804Z,39.30
2017-07-28T11:28:59.331Z,40.62
2017-07-28T11:31:26.792Z,40.06
2017-07-28T11:33:54.230Z,39.48
2017-07-28T11:36:21.696Z,40.79
2017-07-28T11:38:49.185Z,37.63
2017-07-28T11:41:16.641Z,38.47
2017-07-28T11:43:44.120Z,40.09
2017-07-28T11:46:11.532Z,39.62
2017-07-28T11:48:39.495Z,39.97
2017-07-28T11:51:06.993Z,39.28
2017-07-28T11:53:34.466Z,39.87
2017-07-28T11:56:01.875Z,41.34
2017-07-28T11:58:29.379Z,41.62
2017-07-28T12:00:56.845Z,40.50
2017-07-28T12:03:24.272Z,41.16
2017-07-28T12:05:51.833Z,38.49
2017-07-28T12:08:19.271Z,39.71
2017-07-28T12:10:46.690Z,39.41
2017-07-28T12:13:14.132Z,37.87
2017-07-28T12:15:41.588Z,37.09
2017-07-28T12:18:09.063Z,37.92
2017-07-28T12:20:36.481Z,37.54
2017-07-28T12:23:03.902Z,36.26
2017-07-28T12:25:31.621Z,35.14
2017-07-28T12:27:59.068Z,36.39
2017-07-28T12:30:27.122Z,36.43
2017-07-28T12:32:54.549Z,36.92
2017-07-28T12:35:22.036Z,37.13
2017-07-28T12:37:49.486Z,35.90
2017-07-28T12:40:16.907Z,35.27
2017-07-28T12:42:44.428Z,36.65
2017-07-28T12:45:11.908Z,37.02
2017-07-28T12:47:39.654Z,34.02
2017-07-28T12:50:07.147Z,32.98
2017-07-28T12:52:34.813Z,30.70
2017-07-28T12:55:02.217Z,29.41
2017-07-28T12:57:29.683Z,27.88
2017-07-28T12:59:57.232Z,27.58
2017-07-28T13:02:24.728Z,27.80
2017-07-28T13:04:52.153Z,28.20
2017-07-28T13:07:19.643Z,28.23
2017-07-28T13:09:47.061Z,29.49
2017-07-28T13:12:14.463Z,26.44
2017-07-28T13:14:41.987Z,28.65
2017-07-28T13:17:09.417Z,29.14
2017-07-28T13:19:36.860Z,30.11
2017-07-28T13:22:04.311Z,32.41
2017-07-28T13:24:31.735Z,29.62
2017-07-28T13:26:59.166Z,30.61
2017-07-28T13:29:26.643Z,29.21
2017-07-28T13:31:54.144Z,27.58
2017-07-28T13:34:21.568Z,28.18
2017-07-28T13:36:49.022Z,27.70
2017-07-28T13:39:16.480Z,27.81
2017-07-28T13:41:43.928Z,28.28
2017-07-28T13:44:11.505Z,29.52
2017-07-28T13:46:44.809Z,32.04
2017-07-28T13:49:12.390Z,32.03
2017-07-28T13:51:39.779Z,32.73
2017-07-28T13:54:07.915Z,33.41
2017-07-28T13:56:35.362Z,33.42
2017-07-28T13:59:02.846Z,34.86
2017-07-28T14:01:30.306Z,34.37
2017-07-28T14:03:57.739Z,34.71
2017-07-28T14:06:25.211Z,35.92
2017-07-28T14:08:53.271Z,34.62
2017-07-28T14:11:20.781Z,34.69
2017-07-28T14:13:48.224Z,33.89
2017-07-28T14:16:15.651Z,34.64
2017-07-28T14:18:43.139Z,35.49
2017-07-28T14:21:10.561Z,35.74
2017-07-28T14:23:38.094Z,36.08
2017-07-28T14:26:05.544Z,37.39
2017-07-28T14:28:33.028Z,37.27
2017-07-28T14:31:00.510Z,36.01
2017-07-28T14:33:28.015Z,35.35
2017-07-28T14:35:55.599Z,31.86
2017-07-28T14:38:23.100Z,31.37
2017-07-28T14:40:50.614Z,31.99
2017-07-28T14:43:18.100Z,32.18
2017-07-28T14:45:45.511Z,32.82
2017-07-28T14:48:12.960Z,32.66
2017-07-28T14:50:40.395Z,31.76
2017-07-28T14:53:07.795Z,31.62
2017-07-28T14:55:35.350Z,31.35
2017-07-28T14:58:02.760Z,30.16
2017-07-28T15:00:30.189Z,32.28
2017-07-28T15:02:58.536Z,30.85
2017-07-28T15:05:26.011Z,32.13
2017-07-28T15:07:53.488Z,33.41
2017-07-28T15:10:20.997Z,33.52
2017-07-28T15:12:48.474Z,33.31
2017-07-28T15:15:15.907Z,32.90
2017-07-28T15:17:43.324Z,33.88
2017-07-28T15:20:10.854Z,32.59
2017-07-28T15:22:38.261Z,32.65
2017-07-28T15:25:05.675Z,32.76
2017-07-28T15:27:33.095Z,32.97
2017-07-28T15:30:00.504Z,32.47
2017-07-28T15:32:28.003Z,31.90
2017-07-28T15:34:55.428Z,32.30
2017-07-28T15:37:22.875Z,31.61
2017-07-28T15:39:50.331Z,32.20
2017-07-28T15:44:51.599Z,33.81
2017-07-28T15:47:19.027Z,35.67
2017-07-28T15:49:46.460Z,35.79
2017-07-28T15:52:14.139Z,36.33
2017-07-28T15:54:41.948Z,35.69
2017-07-28T15:57:09.494Z,36.01
2017-07-28T15:59:36.933Z,35.95
2017-07-28T16:02:04.381Z,36.83
2017-07-28T16:04:31.817Z,36.07
2017-07-28T16:06:59.269Z,35.24
2017-07-28T16:09:27.210Z,36.55
2017-07-28T16:11:54.736Z,36.96
2017-07-28T16:14:22.208Z,38.06
2017-07-28T16:16:49.771Z,36.97
2017-07-28T16:19:17.211Z,37.76
2017-07-28T16:21:44.674Z,37.79
2017-07-28T16:24:12.194Z,37.84
2017-07-28T16:26:39.608Z,38.26
2017-07-28T16:29:07.027Z,38.76
2017-07-28T16:31:34.463Z,38.57
2017-07-28T16:34:02.000Z,37.67
2017-07-28T16:39:23.713Z,38.18
2017-07-28T16:41:51.197Z,37.24
2017-07-28T16:44:18.663Z,37.64
2017-07-28T16:46:46.130Z,38.85
2017-07-28T16:49:13.546Z,38.43
2017-07-28T16:51:41.053Z,37.96
2017-07-28T16:54:08.459Z,38.28
2017-07-28T16:56:35.900Z,38.72
2017-07-28T16:59:03.399Z,39.88
2017-07-28T17:01:30.929Z,39.91
2017-07-28T17:03:58.351Z,40.18
2017-07-28T17:06:25.825Z,40.44
2017-07-28T17:08:53.270Z,41.52
2017-07-28T17:11:20.732Z,41.56
2017-07-28T17:13:48.180Z,41.52
2017-07-28T17:16:15.591Z,41.41
2017-07-28T17:18:43.013Z,42.24
2017-07-28T17:21:10.512Z,41.72
2017-07-28T17:23:37.931Z,41.97
2017-07-28T17:26:06.143Z,43.10
2017-07-28T17:28:33.606Z,43.20
2017-07-28T17:31:01.058Z,42.72
2017-07-28T17:33:29.142Z,43.21
2017-07-28T17:35:56.616Z,42.18
2017-07-28T17:38:24.170Z,41.80
2017-07-28T17:40:51.590Z,42.16
2017-07-28T17:43:19.074Z,43.03
2017-07-28T17:45:46.533Z,41.74
2017-07-28T17:48:13.979Z,42.12
2017-07-28T17:50:41.458Z,43.48
2017-07-28T17:53:08.870Z,43.09
2017-07-28T17:55:36.365Z,42.94
2017-07-28T17:58:04.016Z,43.84
2017-07-28T18:00:31.529Z,43.65
2017-07-28T18:02:58.974Z,43.63
2017-07-28T18:05:26.375Z,44.42
2017-07-28T18:07:53.812Z,44.14
2017-07-28T18:10:21.259Z,44.53
2017-07-28T18:12:48.748Z,44.50
2017-07-28T18:15:16.148Z,45.47
2017-07-28T18:17:43.623Z,45.55
2017-07-28T18:20:11.104Z,46.16
2017-07-28T18:22:38.576Z,46.35
2017-07-28T18:25:06.072Z,46.52
2017-07-28T18:27:33.521Z,46.79
2017-07-28T18:30:00.940Z,46.38
2017-07-28T18:32:28.465Z,47.09
2017-07-28T18:34:56.073Z,47.20
2017-07-28T18:37:23.503Z,47.56
2017-07-28T18:39:50.952Z,47.47
2017-07-28T18:42:18.386Z,48.32
2017-07-28T18:44:45.855Z,48.83
2017-07-28T18:47:13.281Z,51.27
2017-07-28T18:49:40.691Z,49.13
2017-07-28T18:52:08.164Z,48.26
2017-07-28T18:54:35.593Z,48.51
2017-07-28T18:57:03.040Z,52.09
2017-07-28T18:59:30.472Z,51.60
2017-07-28T19:01:57.877Z,52.35
2017-07-28T19:04:25.771Z,54.62
2017-07-28T19:06:53.210Z,54.48
2017-07-28T19:09:20.629Z,53.56
2017-07-28T19:11:48.084Z,52.36
2017-07-28T19:14:15.499Z,51.57
2017-07-28T19:16:43.101Z,51.07
2017-07-28T19:19:10.543Z,50.71
2017-07-28T19:21:37.955Z,50.78
2017-07-28T19:24:05.378Z,50.40
2017-07-28T19:26:32.821Z,51.99
2017-07-28T19:29:00.260Z,51.48
2017-07-28T19:31:27.716Z,51.88
2017-07-28T19:33:55.195Z,52.21
2017-07-28T19:36:22.644Z,52.53
2017-07-28T19:38:50.104Z,52.79
2017-07-28T19:41:17.545Z,52.63
2017-07-28T19:43:44.955Z,52.82
2017-07-28T19:46:12.469Z,53.61
2017-07-28T19:48:39.906Z,53.27
2017-07-28T19:51:07.327Z,54.44
2017-07-28T19:53:34.786Z,53.95
2017-07-28T19:56:02.221Z,54.23
2017-07-28T19:58:29.732Z,56.84
2017-07-28T20:00:57.216Z,55.26
2017-07-28T20:03:24.628Z,56.88
2017-07-28T20:05:52.104Z,58.20
2017-07-28T20:08:19.552Z,60.68
2017-07-28T20:10:46.996Z,58.67
2017-07-28T20:13:14.432Z,57.66
2017-07-28T20:15:41.905Z,58.99
2017-07-28T20:18:09.321Z,59.79
2017-07-28T20:20:36.768Z,60.92
2017-07-28T20:23:04.221Z,60.71
2017-07-28T20:25:31.651Z,59.86
2017-07-28T20:27:59.118Z,59.61
2017-07-28T20:30:26.541Z,59.83
2017-07-28T20:32:54.528Z,59.37
2017-07-28T20:35:21.982Z,61.20
2017-07-28T20:37:49.430Z,60.94
2017-07-28T20:40:17.644Z,61.51
2017-07-28T20:42:45.135Z,59.87
2017-07-28T20:45:12.546Z,61.74
2017-07-28T20:47:40.023Z,61.59
2017-07-28T20:50:07.460Z,61.35
2017-07-28T20:52:34.912Z,62.06
2017-07-28T20:55:02.360Z,62.20
2017-07-28T20:57:29.846Z,62.56
2017-07-28T20:59:57.343Z,61.56
2017-07-28T21:02:24.912Z,61.51
2017-07-28T21:04:52.359Z,61.81
2017-07-28T21:07:19.815Z,62.05
2017-07-28T21:09:47.227Z,62.73
2017-07-28T21:12:14.679Z,62.68
2017-07-28T21:14:42.167Z,63.23
2017-07-28T21:17:09.571Z,62.43
2017-07-28T21:19:37.376Z,62.25
2017-07-28T21:22:04.834Z,62.19
2017-07-28T21:24:32.312Z,63.31
2017-07-28T21:26:59.851Z,62.23
2017-07-28T21:29:27.454Z,62.67
2017-07-28T21:31:54.923Z,62.49
2017-07-28T21:34:22.432Z,62.35
2017-07-28T21:36:49.843Z,62.67
2017-07-28T21:39:17.271Z,63.55
2017-07-28T21:41:44.833Z,63.41
2017-07-28T21:44:12.247Z,62.63
2017-07-28T21:46:39.707Z,63.46
2017-07-28T21:49:07.381Z,62.29
2017-07-28T21:51:34.830Z,62.39
2017-07-28T21:54:02.262Z,61.96
2017-07-28T21:56:29.668Z,61.53
2017-07-28T21:58:57.109Z,61.19
2017-07-28T22:01:24.528Z,61.42
2017-07-28T22:03:51.999Z,61.08
2017-07-28T22:06:19.426Z,61.65
2017-07-28T22:08:46.846Z,63.15
2017-07-28T22:11:14.291Z,63.04
2017-07-28T22:13:41.705Z,63.36
2017-07-28T22:16:09.160Z,63.15
2017-07-28T22:18:36.561Z,63.58
2017-07-28T22:21:04.031Z,63.90
2017-07-28T22:23:31.560Z,63.75
2017-07-28T22:25:59.094Z,63.44
2017-07-28T22:28:26.507Z,63.65
2017-07-28T22:30:54.043Z,63.57
2017-07-28T22:33:21.472Z,63.14
2017-07-28T22:35:48.872Z,63.19
2017-07-28T22:38:16.440Z,62.82
2017-07-28T22:40:43.860Z,63.33
2017-07-28T22:43:11.432Z,64.02
2017-07-28T22:45:38.872Z,64.75
2017-07-28T22:48:06.309Z,65.77
2017-07-28T22:50:33.766Z,66.94
2017-07-28T22:53:01.173Z,65.71
2017-07-28T22:55:28.622Z,64.66
2017-07-28T22:57:56.084Z,65.21
2017-07-28T23:00:23.579Z,65.07
2017-07-28T23:02:51.006Z,65.88
2017-07-28T23:05:18.432Z,66.11
2017-07-28T23:07:45.880Z,67.04
2017-07-28T23:10:13.299Z,67.49
2017-07-28T23:12:40.742Z,67.69
2017-07-28T23:15:08.155Z,67.63
2017-07-28T23:17:35.647Z,67.50
2017-07-28T23:20:03.101Z,67.54
2017-07-28T23:22:30.514Z,67.16
2017-07-28T23:24:57.979Z,67.68
2017-07-28T23:27:25.409Z,67.95
2017-07-28T23:29:52.847Z,68.46
2017-07-28T23:32:20.254Z,68.21
2017-07-28T23:34:47.701Z,68.49
2017-07-28T23:37:15.979Z,68.55
2017-07-28T23:39:43.386Z,68.58
2017-07-28T23:42:10.833Z,68.38
2017-07-28T23:44:38.285Z,68.59
2017-07-28T23:47:05.683Z,68.68
2017-07-28T23:49:33.167Z,69.38
2017-07-28T23:52:00.582Z,69.46
2017-07-28T23:54:28.020Z,69.26
2017-07-28T23:56:55.712Z,69.35
2017-07-28T23:59:23.146Z,69.86
